Time;durP1;ratioP1;P1;durP2;ratioP2;P2;SDS_P1;SDS_P2;PMS_P1;PMS_P2;Temp;Humidity;BMP_temperature;BMP_pressure;BME280_temperature;BME280_humidity;BME280_pressure;Samples;Min_cycle;Max_cycle;Signal;HPM_P1;HPM_P2
2022/11/12 00:00:22;;;;;;;8.63;5.10;;;5.90;99.90;;;;;;5116359;28;20197;-76
2022/11/12 00:02:48;;;;;;;7.87;4.83;;;5.90;99.90;;;;;;5114646;28;20173;-75
2022/11/12 00:05:13;;;;;;;7.50;5.60;;;5.90;99.90;;;;;;5114384;28;20165;-76
2022/11/12 00:07:39;;;;;;;6.23;4.87;;;5.90;99.90;;;;;;5115326;28;20169;-76
2022/11/12 00:10:05;;;;;;;6.30;4.83;;;5.80;99.90;;;;;;5116541;28;20204;-76
2022/11/12 00:12:30;;;;;;;5.50;4.30;;;5.70;99.90;;;;;;5115441;28;20176;-76
2022/11/12 00:14:56;;;;;;;4.80;4.00;;;5.60;99.90;;;;;;5114818;28;20422;-76
2022/11/12 00:17:21;;;;;;;9.30;4.97;;;5.60;99.90;;;;;;5116688;28;20173;-76
2022/11/12 00:19:47;;;;;;;9.33;5.40;;;5.50;99.90;;;;;;5116506;28;20200;-77
2022/11/12 00:22:13;;;;;;;5.30;4.23;;;5.50;99.90;;;;;;5113477;28;20189;-77
2022/11/12 00:24:39;;;;;;;7.23;5.13;;;5.40;99.90;;;;;;5113644;28;20452;-77
2022/11/12 00:27:04;;;;;;;8.80;5.00;;;5.40;99.90;;;;;;5114987;28;20169;-77
2022/11/12 00:29:29;;;;;;;5.80;4.90;;;5.40;99.90;;;;;;5113566;28;20176;-77
2022/11/12 00:31:55;;;;;;;16.23;5.23;;;5.50;99.90;;;;;;5115088;28;20224;-77
2022/11/12 00:34:20;;;;;;;5.17;3.93;;;5.50;99.90;;;;;;5113657;28;20173;-77
2022/11/12 00:36:46;;;;;;;6.37;5.50;;;5.40;99.90;;;;;;5115167;28;20177;-77
2022/11/12 00:39:12;;;;;;;6.43;4.10;;;5.50;99.90;;;;;;5113524;28;20686;-77
2022/11/12 00:41:37;;;;;;;9.70;5.13;;;5.50;99.90;;;;;;5114876;28;20188;-77
2022/11/12 00:44:03;;;;;;;6.07;4.77;;;5.50;99.90;;;;;;5113470;28;20173;-77
2022/11/12 00:46:28;;;;;;;6.70;4.80;;;5.50;99.90;;;;;;5115751;27;20164;-77
2022/11/12 00:48:54;;;;;;;10.07;5.10;;;5.50;99.90;;;;;;5125054;27;20167;-77
2022/11/12 00:51:19;;;;;;;11.13;6.43;;;5.50;99.90;;;;;;5114307;28;20201;-76
2022/11/12 00:53:49;;;;;;;6.30;4.87;;;5.50;99.90;;;;;;5114778;28;20169;-77
2022/11/12 00:56:15;;;;;;;7.87;5.70;;;5.50;99.90;;;;;;5113137;28;20173;-77
2022/11/12 00:58:40;;;;;;;7.77;4.93;;;5.50;99.90;;;;;;5122493;28;20433;-77
2022/11/12 01:01:09;;;;;;;10.40;6.63;;;5.50;99.90;;;;;;5125600;28;20426;-76
2022/11/12 01:03:35;;;;;;;9.50;5.77;;;5.50;99.90;;;;;;5124355;28;20180;-77
2022/11/12 01:06:06;;;;;;;11.33;6.63;;;5.50;99.90;;;;;;5124015;28;20409;-77
2022/11/12 01:08:33;;;;;;;10.20;6.60;;;5.50;99.90;;;;;;5124696;28;20391;-77
2022/11/12 01:11:06;;;;;;;7.43;5.40;;;5.60;99.90;;;;;;5124602;28;20423;-77
2022/11/12 01:13:31;;;;;;;9.63;5.43;;;5.70;99.90;;;;;;5124573;28;20421;-76
2022/11/12 01:15:57;;;;;;;8.80;6.37;;;5.70;99.90;;;;;;5124477;28;20414;-77
2022/11/12 01:18:22;;;;;;;14.67;5.83;;;5.80;99.90;;;;;;5124506;28;20177;-77
2022/11/12 01:20:48;;;;;;;9.40;5.77;;;5.80;99.90;;;;;;5124717;28;20205;-76
2022/11/12 01:23:13;;;;;;;11.13;6.57;;;5.80;99.90;;;;;;5123682;28;20190;-77
2022/11/12 01:25:39;;;;;;;8.83;6.30;;;5.80;99.90;;;;;;5123788;28;20165;-77
2022/11/12 01:28:04;;;;;;;6.87;5.10;;;5.90;99.90;;;;;;5123840;28;20646;-77
2022/11/12 01:30:30;;;;;;;7.70;5.63;;;5.90;99.90;;;;;;5123508;28;20192;-77
2022/11/12 01:32:56;;;;;;;9.70;7.03;;;5.90;99.90;;;;;;5123418;28;20198;-76
2022/11/12 01:35:21;;;;;;;7.47;5.53;;;5.90;99.90;;;;;;5124228;28;20200;-77
2022/11/12 01:37:47;;;;;;;7.50;5.10;;;6.00;99.90;;;;;;5123582;28;20245;-77
2022/11/12 01:40:13;;;;;;;10.27;6.43;;;6.00;99.90;;;;;;5122956;28;20204;-77
2022/11/12 01:42:39;;;;;;;13.17;7.50;;;6.00;99.90;;;;;;5123867;28;20165;-77
2022/11/12 01:45:14;;;;;;;11.80;5.97;;;6.00;99.90;;;;;;5123479;28;20429;-77
2022/11/12 01:47:41;;;;;;;11.87;6.20;;;6.00;99.90;;;;;;5123518;28;20255;-77
2022/11/12 01:50:22;;;;;;;8.90;6.57;;;6.00;99.90;;;;;;5123514;28;20449;-77
2022/11/12 01:53:05;;;;;;;9.80;6.07;;;6.00;99.90;;;;;;5123033;28;20406;-77
2022/11/12 01:55:36;;;;;;;9.60;5.70;;;6.00;99.90;;;;;;5123185;28;20823;-77
2022/11/12 01:58:10;;;;;;;6.20;5.33;;;5.90;99.90;;;;;;5124713;27;20474;-77
2022/11/12 02:00:36;;;;;;;13.23;7.07;;;6.00;99.90;;;;;;5135734;27;20453;-77
2022/11/12 02:03:06;;;;;;;9.40;6.40;;;5.90;99.90;;;;;;5123194;28;20403;-77
2022/11/12 02:05:34;;;;;;;7.33;5.60;;;5.90;99.90;;;;;;5122955;28;20419;-77
2022/11/12 02:08:00;;;;;;;9.60;5.70;;;5.90;99.90;;;;;;5124227;28;20415;-76
2022/11/12 02:10:26;;;;;;;16.23;6.80;;;6.00;99.90;;;;;;5123857;28;20507;-77
2022/11/12 02:15:39;;;;;;;9.83;5.47;;;6.00;99.90;;;;;;5116573;28;21027;-76
2022/11/12 02:18:05;;;;;;;11.13;5.83;;;6.00;99.90;;;;;;5114131;28;20470;-77
2022/11/12 02:20:37;;;;;;;7.90;5.77;;;6.00;99.90;;;;;;5112635;28;20515;-77
2022/11/12 02:23:05;;;;;;;8.57;6.37;;;6.00;99.90;;;;;;5112557;28;20434;-77
2022/11/12 02:25:32;;;;;;;10.57;6.63;;;6.00;99.90;;;;;;5112488;28;20395;-77
2022/11/12 02:27:59;;;;;;;10.50;7.33;;;5.90;99.90;;;;;;5112825;28;20429;-77
2022/11/12 02:30:41;;;;;;;11.10;6.60;;;6.00;99.90;;;;;;5112618;28;20517;-77
2022/11/12 02:33:07;;;;;;;9.57;6.07;;;6.00;99.90;;;;;;5111128;28;20419;-77
2022/11/12 02:35:32;;;;;;;15.03;7.17;;;6.00;99.90;;;;;;5112295;28;20399;-77
2022/11/12 02:37:58;;;;;;;11.53;7.90;;;6.00;99.90;;;;;;5111320;28;20169;-77
2022/11/12 02:40:24;;;;;;;13.00;7.03;;;6.00;99.90;;;;;;5112442;28;20193;-77
2022/11/12 02:42:50;;;;;;;10.37;6.60;;;6.00;99.90;;;;;;5110928;28;20421;-78
2022/11/12 02:45:16;;;;;;;7.63;5.53;;;5.90;99.90;;;;;;5112123;28;20248;-77
2022/11/12 02:47:42;;;;;;;12.30;7.10;;;5.90;99.90;;;;;;5112643;28;20241;-76
2022/11/12 02:50:08;;;;;;;12.80;6.47;;;5.90;99.90;;;;;;5117112;28;20897;-77
2022/11/12 02:52:34;;;;;;;9.10;6.43;;;5.90;99.90;;;;;;5123518;28;20161;-76
2022/11/12 02:55:00;;;;;;;10.70;7.50;;;5.90;99.90;;;;;;5121526;28;20429;-76
2022/11/12 02:57:26;;;;;;;14.20;7.40;;;5.90;99.90;;;;;;5119290;28;20441;-76
2022/11/12 02:59:51;;;;;;;12.27;6.80;;;5.90;99.90;;;;;;5115042;28;20197;-76
2022/11/12 03:02:17;;;;;;;12.13;7.60;;;5.90;99.90;;;;;;5117321;28;20437;-76
2022/11/12 03:04:42;;;;;;;11.80;7.30;;;5.90;99.90;;;;;;5120113;28;20578;-76
2022/11/12 03:07:08;;;;;;;13.10;7.60;;;6.00;99.90;;;;;;5119970;28;20168;-77
2022/11/12 03:09:33;;;;;;;17.13;7.73;;;5.80;99.90;;;;;;5120936;27;20180;-77
2022/11/12 03:11:59;;;;;;;16.33;7.40;;;5.90;99.90;;;;;;5139427;27;20188;-76
2022/11/12 03:14:25;;;;;;;12.40;7.20;;;5.90;99.90;;;;;;5127746;27;20594;-76
2022/11/12 03:16:50;;;;;;;17.77;7.37;;;5.90;99.90;;;;;;5121593;28;20234;-76
2022/11/12 03:19:16;;;;;;;9.27;7.03;;;5.90;99.90;;;;;;5121410;28;20204;-77
2022/11/12 03:21:41;;;;;;;11.27;6.57;;;5.80;99.90;;;;;;5120233;28;20177;-76
2022/11/12 03:24:07;;;;;;;17.33;7.23;;;5.80;99.90;;;;;;5117748;28;20222;-77
2022/11/12 03:26:33;;;;;;;11.53;7.37;;;5.80;99.90;;;;;;5114494;28;20192;-77
2022/11/12 03:28:58;;;;;;;10.67;7.40;;;5.70;99.90;;;;;;5116140;28;20165;-77
2022/11/12 03:31:24;;;;;;;13.57;7.33;;;5.70;99.90;;;;;;5116083;28;20188;-77
2022/11/12 03:33:49;;;;;;;10.90;7.27;;;5.70;99.90;;;;;;5114864;28;20164;-76
2022/11/12 03:36:15;;;;;;;13.43;6.97;;;5.70;99.90;;;;;;5120262;28;20249;-76
2022/11/12 03:38:40;;;;;;;12.50;8.27;;;5.60;99.90;;;;;;5119430;28;20595;-77
2022/11/12 03:41:06;;;;;;;10.30;6.90;;;5.60;99.90;;;;;;5118388;28;20242;-76
2022/11/12 03:43:31;;;;;;;13.63;7.33;;;5.60;99.90;;;;;;5119414;28;20268;-76
2022/11/12 03:45:57;;;;;;;10.10;7.10;;;5.60;99.90;;;;;;5097496;28;20169;-77
2022/11/12 03:48:22;;;;;;;8.40;6.57;;;5.50;99.90;;;;;;5096903;28;20223;-76
2022/11/12 03:50:48;;;;;;;13.57;7.90;;;5.50;99.90;;;;;;5100748;28;20263;-76
2022/11/12 03:53:14;;;;;;;7.83;5.90;;;5.50;99.90;;;;;;5103173;28;20203;-77
2022/11/12 03:55:39;;;;;;;12.93;7.80;;;5.50;99.90;;;;;;5105315;28;20169;-76
2022/11/12 03:58:05;;;;;;;14.93;6.50;;;5.50;99.90;;;;;;5123134;28;20180;-76
2022/11/12 04:00:30;;;;;;;14.27;6.70;;;5.50;99.90;;;;;;5123683;28;20196;-77
2022/11/12 04:02:57;;;;;;;16.53;7.47;;;5.50;99.90;;;;;;5123535;28;20176;-76
2022/11/12 04:10:59;;;;;;;12.93;8.20;;;5.50;99.90;;;;;;5125227;28;20479;-76
2022/11/12 04:13:28;;;;;;;11.47;6.83;;;5.50;99.90;;;;;;5123620;28;20442;-76
2022/11/12 04:27:00;;;;;;;11.67;6.73;;;5.40;99.90;;;;;;5141327;27;20908;-76
2022/11/12 04:32:09;;;;;;;13.10;8.90;;;5.30;99.90;;;;;;5120122;28;20191;-76
2022/11/12 04:34:35;;;;;;;9.00;7.00;;;5.30;99.90;;;;;;5120103;28;20979;-76
2022/11/12 04:37:03;;;;;;;11.33;7.07;;;5.30;99.90;;;;;;5101309;28;20200;-76
2022/11/12 04:39:29;;;;;;;12.47;7.53;;;5.30;99.90;;;;;;5120255;28;20200;-77
2022/11/12 04:47:24;;;;;;;10.80;7.60;;;5.20;99.90;;;;;;5122827;28;20914;-76
2022/11/12 04:49:49;;;;;;;12.30;6.40;;;5.30;99.90;;;;;;5105090;28;20406;-76
2022/11/12 04:52:15;;;;;;;12.53;7.13;;;5.30;99.90;;;;;;5118772;28;20557;-76
2022/11/12 04:54:41;;;;;;;11.53;7.10;;;5.20;99.90;;;;;;5105311;28;20198;-76
2022/11/12 04:57:06;;;;;;;19.20;9.07;;;5.20;99.90;;;;;;5105928;28;20411;-76
2022/11/12 04:59:32;;;;;;;9.53;6.93;;;5.20;99.90;;;;;;5106142;28;20197;-77
2022/11/12 05:01:57;;;;;;;12.60;7.77;;;5.20;99.90;;;;;;5106898;28;20185;-76
2022/11/12 05:04:26;;;;;;;11.07;6.70;;;5.20;99.90;;;;;;5102389;28;20173;-77
2022/11/12 05:06:52;;;;;;;13.73;6.30;;;5.20;99.90;;;;;;5119751;28;20164;-77
2022/11/12 05:09:20;;;;;;;12.90;7.57;;;5.20;99.90;;;;;;5119543;28;20497;-76
2022/11/12 05:11:46;;;;;;;11.90;8.07;;;5.10;99.90;;;;;;5119906;28;20426;-76
2022/11/12 05:14:12;;;;;;;11.83;8.23;;;5.10;99.90;;;;;;5101527;28;20915;-76
2022/11/12 05:16:38;;;;;;;13.70;6.70;;;5.10;99.90;;;;;;5101160;28;20439;-76
2022/11/12 05:19:03;;;;;;;12.57;7.83;;;5.10;99.90;;;;;;5118611;28;20454;-76
2022/11/12 05:24:13;;;;;;;17.67;7.60;;;5.10;99.90;;;;;;5116872;28;20230;-76
2022/11/12 05:26:38;;;;;;;12.87;7.90;;;5.10;99.90;;;;;;5117718;28;20407;-76
2022/11/12 05:29:04;;;;;;;13.47;8.70;;;5.10;99.90;;;;;;5115835;27;20172;-75
2022/11/12 05:31:30;;;;;;;9.43;6.57;;;5.10;99.90;;;;;;5114481;28;20196;-75
2022/11/12 05:33:55;;;;;;;18.30;7.93;;;5.00;99.90;;;;;;5117756;28;20173;-75
2022/11/12 05:36:21;;;;;;;16.60;7.00;;;5.00;99.90;;;;;;5118216;28;20543;-75
2022/11/12 05:38:47;;;;;;;13.13;7.80;;;5.00;99.90;;;;;;5117270;28;20184;-75
2022/11/12 05:41:12;;;;;;;13.53;7.93;;;5.00;99.90;;;;;;5118255;27;20228;-76
2022/11/12 05:43:38;;;;;;;12.87;7.67;;;5.00;99.90;;;;;;5116385;28;20271;-76
2022/11/12 05:46:03;;;;;;;12.63;8.80;;;5.00;99.90;;;;;;5112771;28;20172;-76
2022/11/12 05:48:29;;;;;;;17.30;8.83;;;5.00;99.90;;;;;;5113726;28;20605;-76
2022/11/12 05:50:54;;;;;;;10.30;6.40;;;5.00;99.90;;;;;;5112178;28;20189;-76
2022/11/12 05:53:20;;;;;;;12.10;7.37;;;5.00;99.90;;;;;;5112104;28;20172;-75
2022/11/12 05:55:46;;;;;;;10.90;7.40;;;5.00;99.90;;;;;;5111495;28;20404;-76
2022/11/12 05:58:11;;;;;;;10.50;7.33;;;4.90;99.90;;;;;;5113311;28;20184;-76
2022/11/12 06:00:39;;;;;;;12.00;8.07;;;4.90;99.90;;;;;;5111607;28;20587;-76
2022/11/12 06:03:09;;;;;;;15.03;6.70;;;4.90;99.90;;;;;;5113130;28;20229;-76
2022/11/12 06:05:35;;;;;;;12.60;7.53;;;4.90;99.90;;;;;;5113436;28;20418;-77
2022/11/12 06:08:02;;;;;;;12.23;8.13;;;4.90;99.90;;;;;;5113041;28;20407;-76
2022/11/12 06:10:28;;;;;;;15.03;7.33;;;4.90;99.90;;;;;;5113082;28;20427;-76
2022/11/12 06:12:54;;;;;;;13.97;9.17;;;4.90;99.90;;;;;;5111822;27;20431;-76
2022/11/12 06:15:19;;;;;;;13.73;7.97;;;4.90;99.90;;;;;;5112429;28;20251;-76
2022/11/12 06:17:45;;;;;;;9.20;6.17;;;4.90;99.90;;;;;;5111637;28;20180;-76
2022/11/12 06:20:11;;;;;;;14.90;7.20;;;4.90;99.90;;;;;;5112801;28;20454;-76
2022/11/12 06:22:37;;;;;;;12.80;6.87;;;4.90;99.90;;;;;;5112781;28;20204;-76
2022/11/12 06:25:03;;;;;;;10.60;7.23;;;4.80;99.90;;;;;;5112030;28;20419;-76
2022/11/12 06:27:29;;;;;;;15.30;7.43;;;4.80;99.90;;;;;;5111609;28;20172;-77
2022/11/12 06:29:54;;;;;;;18.37;8.10;;;4.70;99.90;;;;;;5111375;28;20422;-78
2022/11/12 06:32:20;;;;;;;13.07;7.90;;;4.70;99.90;;;;;;5112938;28;20653;-77
2022/11/12 06:34:45;;;;;;;12.20;9.00;;;4.70;99.90;;;;;;5114198;28;20603;-77
2022/11/12 06:37:11;;;;;;;12.33;7.20;;;4.70;99.90;;;;;;5111031;28;20192;-77
2022/11/12 06:39:36;;;;;;;14.60;8.50;;;4.70;99.90;;;;;;5114541;28;20242;-77
2022/11/12 06:42:02;;;;;;;16.67;7.93;;;4.70;99.90;;;;;;5124479;27;20185;-77
2022/11/12 06:44:27;;;;;;;10.70;6.57;;;4.70;99.90;;;;;;5112975;28;20168;-77
2022/11/12 06:46:53;;;;;;;14.47;7.13;;;4.70;99.90;;;;;;5112951;28;20232;-77
2022/11/12 06:49:19;;;;;;;15.47;7.30;;;4.60;99.90;;;;;;5113416;28;20177;-77
2022/11/12 06:51:44;;;;;;;17.53;8.63;;;4.60;99.90;;;;;;5113238;28;20192;-77
2022/11/12 06:54:10;;;;;;;11.50;7.60;;;4.60;99.90;;;;;;5113077;28;20177;-76
2022/11/12 06:56:35;;;;;;;13.23;7.97;;;4.70;99.90;;;;;;5112289;28;20548;-77
2022/11/12 06:59:01;;;;;;;12.67;8.13;;;4.70;99.90;;;;;;5118014;28;20180;-76
2022/11/12 07:01:26;;;;;;;10.07;6.60;;;4.70;99.90;;;;;;5119928;28;20185;-76
2022/11/12 07:03:53;;;;;;;11.50;7.50;;;4.70;99.90;;;;;;5118900;28;20181;-76
2022/11/12 07:06:19;;;;;;;16.43;7.67;;;4.70;99.90;;;;;;5117162;28;20191;-76
2022/11/12 07:08:46;;;;;;;14.90;8.77;;;4.70;99.90;;;;;;5119497;28;20422;-77
2022/11/12 07:11:12;;;;;;;12.87;7.63;;;4.70;99.90;;;;;;5115459;28;20466;-76
2022/11/12 07:13:38;;;;;;;15.87;7.53;;;4.80;99.90;;;;;;5111507;28;20931;-77
2022/11/12 07:16:06;;;;;;;14.60;8.23;;;4.90;99.90;;;;;;5111656;28;20410;-77
2022/11/12 07:18:32;;;;;;;11.63;7.60;;;4.90;99.90;;;;;;5113365;28;20924;-76
2022/11/12 07:21:05;;;;;;;16.17;8.50;;;4.90;99.90;;;;;;5114727;28;20462;-77
2022/11/12 07:23:32;;;;;;;14.07;8.33;;;5.00;99.90;;;;;;5116447;28;20426;-76
2022/11/12 07:26:00;;;;;;;15.97;8.30;;;5.00;99.90;;;;;;5115556;28;20407;-75
2022/11/12 07:28:26;;;;;;;13.97;8.67;;;5.10;99.90;;;;;;5115766;28;20446;-76
2022/11/12 07:31:04;;;;;;;13.87;9.00;;;5.20;99.90;;;;;;5116837;28;20483;-76
2022/11/12 07:33:30;;;;;;;14.23;7.13;;;5.20;99.90;;;;;;5117052;28;20169;-75
2022/11/12 07:36:00;;;;;;;16.10;8.90;;;5.20;99.90;;;;;;5117857;28;20431;-76
2022/11/12 07:38:27;;;;;;;15.23;8.83;;;5.30;99.90;;;;;;5118940;28;20539;-76
2022/11/12 07:41:00;;;;;;;14.17;8.20;;;5.30;99.90;;;;;;5119771;28;20454;-76
2022/11/12 07:43:26;;;;;;;15.17;8.30;;;5.40;99.90;;;;;;5116147;28;20747;-77
2022/11/12 07:45:52;;;;;;;16.20;8.83;;;5.50;99.90;;;;;;5114944;28;20426;-75
2022/11/12 07:48:17;;;;;;;16.80;8.53;;;5.80;99.90;;;;;;5117712;28;20399;-77
2022/11/12 07:50:43;;;;;;;18.70;10.20;;;6.20;99.90;;;;;;5121292;27;20180;-78
2022/11/12 07:53:08;;;;;;;14.93;8.47;;;6.70;99.90;;;;;;5135810;27;20169;-79
2022/11/12 07:55:34;;;;;;;18.90;10.27;;;7.20;99.90;;;;;;5117679;28;20210;-78
2022/11/12 07:57:59;;;;;;;17.27;10.30;;;7.80;99.90;;;;;;5117615;28;20184;-78
2022/11/12 08:00:25;;;;;;;15.03;9.47;;;8.20;99.90;;;;;;5120429;28;20290;-78
2022/11/12 08:02:50;;;;;;;11.73;8.43;;;8.70;99.90;;;;;;5124295;28;20273;-78
2022/11/12 08:05:16;;;;;;;13.20;8.87;;;9.10;99.90;;;;;;5118324;28;20188;-78
2022/11/12 08:07:41;;;;;;;12.93;8.97;;;9.70;99.90;;;;;;5121434;28;20173;-79
2022/11/12 08:10:07;;;;;;;10.30;6.80;;;10.30;99.90;;;;;;5120614;28;20190;-78
2022/11/12 08:12:33;;;;;;;8.97;6.00;;;10.60;99.90;;;;;;5120752;28;20236;-78
2022/11/12 08:14:58;;;;;;;9.57;5.17;;;11.00;99.90;;;;;;5122803;28;20450;-78
2022/11/12 08:17:24;;;;;;;8.57;5.90;;;11.60;99.90;;;;;;5119383;28;20204;-79
2022/11/12 08:19:54;;;;;;;7.07;5.47;;;11.90;99.90;;;;;;5116734;28;20672;-78
2022/11/12 08:22:20;;;;;;;5.03;4.50;;;12.10;99.90;;;;;;5118943;28;20162;-78
2022/11/12 08:24:45;;;;;;;8.00;4.73;;;12.20;99.90;;;;;;5122472;27;20907;-78
2022/11/12 08:27:11;;;;;;;5.60;4.37;;;12.60;99.90;;;;;;5121460;28;20411;-78
2022/11/12 08:29:36;;;;;;;6.10;4.63;;;13.00;99.90;;;;;;5119005;28;20184;-78
2022/11/12 08:32:02;;;;;;;6.70;4.40;;;13.10;99.90;;;;;;5122711;28;20192;-77
2022/11/12 08:34:27;;;;;;;5.47;4.00;;;13.50;99.90;;;;;;5121564;28;20172;-77
2022/11/12 08:36:53;;;;;;;9.27;3.57;;;14.20;99.90;;;;;;5120503;28;20215;-77
2022/11/12 08:39:18;;;;;;;4.07;3.17;;;14.60;99.90;;;;;;5121964;28;20259;-77
2022/11/12 08:41:44;;;;;;;4.53;3.90;;;15.00;99.90;;;;;;5120429;28;20197;-77
2022/11/12 08:44:09;;;;;;;4.63;3.63;;;15.00;99.90;;;;;;5120644;28;20194;-77
2022/11/12 08:46:35;;;;;;;5.23;4.07;;;14.70;99.90;;;;;;5121585;28;20229;-77
2022/11/12 08:49:00;;;;;;;4.57;3.37;;;13.90;99.90;;;;;;5114926;28;20173;-78
2022/11/12 08:51:26;;;;;;;4.50;3.33;;;13.40;99.90;;;;;;5114383;28;20241;-78
2022/11/12 08:53:51;;;;;;;5.70;4.53;;;13.20;99.90;;;;;;5114761;28;20169;-78
2022/11/12 08:56:17;;;;;;;6.10;4.40;;;13.10;99.90;;;;;;5114018;28;20172;-78
2022/11/12 08:58:42;;;;;;;5.10;3.77;;;13.30;99.90;;;;;;5114961;28;20199;-78
2022/11/12 09:01:09;;;;;;;4.30;3.90;;;13.50;99.90;;;;;;5124079;27;20250;-77
2022/11/12 09:03:35;;;;;;;5.77;4.07;;;13.40;99.90;;;;;;5114909;28;20244;-77
2022/11/12 09:06:04;;;;;;;6.27;4.03;;;13.10;99.90;;;;;;5114086;28;20908;-77
2022/11/12 09:08:32;;;;;;;5.80;4.10;;;12.90;99.90;;;;;;5114636;28;20497;-77
2022/11/12 09:10:58;;;;;;;5.87;4.10;;;13.30;99.90;;;;;;5113279;28;20427;-77
2022/11/12 09:13:23;;;;;;;6.90;4.73;;;13.60;99.90;;;;;;5114954;28;20418;-77
2022/11/12 09:15:49;;;;;;;6.90;4.40;;;14.20;99.90;;;;;;5115513;28;20702;-78
2022/11/12 09:18:16;;;;;;;4.90;4.10;;;14.30;99.90;;;;;;5116614;28;20630;-78
2022/11/12 09:20:42;;;;;;;4.60;4.13;;;14.10;99.90;;;;;;5115998;28;20207;-78
2022/11/12 09:23:10;;;;;;;5.47;4.27;;;13.90;99.90;;;;;;5115347;28;20426;-78
2022/11/12 09:25:36;;;;;;;5.23;3.97;;;13.70;99.90;;;;;;5115570;28;20169;-77
2022/11/12 09:28:10;;;;;;;5.27;4.00;;;13.60;99.90;;;;;;5116999;28;20454;-77
2022/11/12 09:30:37;;;;;;;5.93;4.13;;;13.50;99.90;;;;;;5117273;28;20442;-77
2022/11/12 09:33:02;;;;;;;5.73;4.60;;;13.50;99.90;;;;;;5115570;28;20418;-77
2022/11/12 09:35:29;;;;;;;5.27;3.37;;;13.30;99.90;;;;;;5116710;28;20410;-76
2022/11/12 09:37:55;;;;;;;4.70;4.00;;;13.00;99.90;;;;;;5116952;28;20176;-76
2022/11/12 09:40:26;;;;;;;8.20;4.00;;;13.10;99.90;;;;;;5113922;28;20462;-77
2022/11/12 09:42:54;;;;;;;4.07;3.67;;;13.50;99.90;;;;;;5118688;28;20457;-77
2022/11/12 09:45:30;;;;;;;4.10;3.70;;;13.70;99.90;;;;;;5117412;28;20502;-77
2022/11/12 09:48:01;;;;;;;5.40;4.30;;;14.30;99.90;;;;;;5117142;28;20501;-77
2022/11/12 09:50:30;;;;;;;8.00;3.90;;;14.90;99.90;;;;;;5117362;28;20431;-77
2022/11/12 09:53:34;;;;;;;3.70;3.20;;;15.50;99.90;;;;;;5118409;28;20427;-77
2022/11/12 09:56:04;;;;;;;5.53;3.60;;;15.20;99.90;;;;;;5089905;28;20765;-77
2022/11/12 09:58:29;;;;;;;3.37;2.87;;;15.20;99.90;;;;;;5093447;28;20456;-77
2022/11/12 10:00:59;;;;;;;5.03;3.30;;;15.30;99.90;;;;;;5096595;28;20459;-77
2022/11/12 10:03:52;;;;;;;4.13;3.20;;;15.40;99.90;;;;;;5104680;28;20181;-77
2022/11/12 10:06:23;;;;;;;4.50;4.00;;;15.40;99.90;;;;;;5113110;28;20410;-77
2022/11/12 10:09:08;;;;;;;4.47;3.53;;;15.70;99.90;;;;;;5114010;28;20431;-78
2022/11/12 10:14:47;;;;;;;3.90;3.40;;;16.70;99.90;;;;;;5101121;28;20409;-77
2022/11/12 10:17:35;;;;;;;5.17;3.60;;;17.70;99.90;;;;;;5117715;28;20432;-77
2022/11/12 10:20:22;;;;;;;5.20;3.50;;;17.90;99.90;;;;;;5116741;28;20455;-77
2022/11/12 10:23:13;;;;;;;5.20;3.30;;;18.40;99.90;;;;;;5113699;28;20431;-76
2022/11/12 10:25:46;;;;;;;4.80;3.67;;;18.40;99.90;;;;;;5114721;28;20390;-76
2022/11/12 10:28:37;;;;;;;3.27;2.97;;;18.30;99.90;;;;;;5113514;28;20438;-76
2022/11/12 10:31:12;;;;;;;3.80;3.43;;;18.00;99.90;;;;;;5113304;28;20434;-76
2022/11/12 10:33:38;;;;;;;4.30;3.53;;;18.60;99.90;;;;;;5111472;28;20417;-76
2022/11/12 10:36:19;;;;;;;8.43;3.97;;;18.80;97.70;;;;;;5111190;28;20406;-77
2022/11/12 10:38:49;;;;;;;3.83;3.43;;;19.10;96.40;;;;;;5113117;28;20314;-77
2022/11/12 10:41:19;;;;;;;6.03;3.37;;;19.10;96.10;;;;;;5113105;28;20457;-77
2022/11/12 10:44:12;;;;;;;4.00;3.60;;;19.10;95.90;;;;;;5115904;28;20456;-77
2022/11/12 10:46:38;;;;;;;3.90;3.43;;;18.70;96.30;;;;;;5110363;28;20982;-77
2022/11/12 10:49:20;;;;;;;3.93;3.53;;;18.80;95.00;;;;;;5117318;28;20403;-77
2022/11/12 10:51:57;;;;;;;4.50;3.57;;;19.00;95.50;;;;;;5114383;28;20253;-76
2022/11/12 10:54:25;;;;;;;4.37;3.60;;;19.10;95.60;;;;;;5114231;28;20410;-76
2022/11/12 10:56:52;;;;;;;4.50;3.57;;;19.20;94.90;;;;;;5115603;28;20441;-77
2022/11/12 10:59:20;;;;;;;3.50;3.20;;;19.20;94.20;;;;;;5112630;28;20407;-77
2022/11/12 11:01:54;;;;;;;6.30;3.23;;;19.10;94.40;;;;;;5113274;28;20842;-76
2022/11/12 11:04:33;;;;;;;4.63;4.10;;;20.00;94.60;;;;;;5114705;28;20450;-77
2022/11/12 11:07:05;;;;;;;4.13;3.57;;;20.70;92.70;;;;;;5114653;28;20405;-76
2022/11/12 11:09:31;;;;;;;5.33;3.90;;;20.90;89.70;;;;;;5114906;28;20425;-76
2022/11/12 11:11:57;;;;;;;3.17;2.87;;;20.90;85.50;;;;;;5112576;28;20437;-77
2022/11/12 11:14:24;;;;;;;3.40;3.10;;;20.80;87.50;;;;;;5113434;28;20505;-77
2022/11/12 11:17:03;;;;;;;5.20;3.80;;;20.90;86.90;;;;;;5118287;28;20414;-77
2022/11/12 11:19:36;;;;;;;5.30;3.70;;;20.70;86.60;;;;;;5120718;27;20460;-77
2022/11/12 11:22:16;;;;;;;3.87;3.47;;;20.50;84.80;;;;;;5114679;28;20439;-76
2022/11/12 11:25:06;;;;;;;6.17;4.37;;;20.00;86.80;;;;;;5118189;28;20399;-76
2022/11/12 11:27:45;;;;;;;3.87;3.40;;;20.10;89.30;;;;;;5118538;28;20871;-75
2022/11/12 11:30:14;;;;;;;4.73;3.70;;;20.20;86.20;;;;;;5118895;28;20425;-76
2022/11/12 11:33:13;;;;;;;3.90;3.20;;;20.40;88.50;;;;;;5119689;28;20437;-76
2022/11/12 11:35:45;;;;;;;3.50;3.20;;;20.00;85.30;;;;;;5116387;28;20406;-77
2022/11/12 11:38:28;;;;;;;3.90;3.33;;;19.60;87.50;;;;;;5116021;28;20464;-76
2022/11/12 11:41:29;;;;;;;5.67;3.57;;;20.00;89.80;;;;;;5115789;28;20460;-77
2022/11/12 11:44:00;;;;;;;5.17;3.27;;;20.40;86.30;;;;;;5114387;28;20420;-77
2022/11/12 11:46:36;;;;;;;4.40;3.20;;;20.80;86.00;;;;;;5117631;28;20405;-76
2022/11/12 11:49:23;;;;;;;3.90;3.13;;;21.40;85.70;;;;;;5118309;28;20398;-77
2022/11/12 11:52:12;;;;;;;4.97;3.07;;;21.50;83.10;;;;;;5118014;28;20418;-76
2022/11/12 11:54:58;;;;;;;6.00;3.73;;;22.00;82.00;;;;;;5116659;28;20414;-77
2022/11/12 11:57:31;;;;;;;5.27;3.50;;;21.50;81.10;;;;;;5114688;28;20424;-76
2022/11/12 12:00:15;;;;;;;5.40;3.40;;;21.10;81.60;;;;;;5115539;28;20461;-76
2022/11/12 12:02:50;;;;;;;4.70;2.90;;;21.30;82.90;;;;;;5115712;28;20391;-77
2022/11/12 12:05:30;;;;;;;3.60;2.57;;;21.20;81.80;;;;;;5113819;28;20410;-76
2022/11/12 12:08:25;;;;;;;5.33;3.33;;;21.30;78.40;;;;;;5116696;28;20832;-76
2022/11/12 12:11:28;;;;;;;4.30;3.87;;;21.40;79.10;;;;;;5118504;28;20438;-76
2022/11/12 12:14:37;;;;;;;3.33;3.00;;;20.80;79.90;;;;;;5117826;28;20399;-75
2022/11/12 12:17:05;;;;;;;3.60;3.13;;;20.90;80.30;;;;;;5117117;28;20923;-76
2022/11/12 12:19:58;;;;;;;3.03;2.73;;;21.10;79.50;;;;;;5118155;28;20480;-77
2022/11/12 12:22:41;;;;;;;4.30;3.90;;;20.80;79.70;;;;;;5116195;27;20496;-76
2022/11/12 12:25:14;;;;;;;4.60;3.50;;;20.60;81.40;;;;;;5113532;28;20417;-76
2022/11/12 12:27:49;;;;;;;4.33;2.70;;;20.90;80.90;;;;;;5116423;27;20449;-75
2022/11/12 12:30:20;;;;;;;3.63;3.33;;;21.20;81.20;;;;;;5115047;28;20436;-76
2022/11/12 12:32:49;;;;;;;4.83;3.40;;;20.60;80.70;;;;;;5116255;28;20426;-76
2022/11/12 12:35:43;;;;;;;3.70;3.40;;;20.70;81.60;;;;;;5115067;28;20809;-76
2022/11/12 12:38:33;;;;;;;4.53;4.00;;;20.70;82.80;;;;;;5114781;28;20482;-76
2022/11/12 12:41:15;;;;;;;7.30;3.30;;;20.60;83.30;;;;;;5115439;28;20454;-76
2022/11/12 12:43:53;;;;;;;4.87;3.93;;;20.30;83.90;;;;;;5114414;28;20495;-76
2022/11/12 12:46:23;;;;;;;4.07;3.60;;;19.90;85.80;;;;;;5114479;28;20390;-75
2022/11/12 12:48:51;;;;;;;5.30;4.80;;;19.60;87.50;;;;;;5114670;28;20398;-76
2022/11/12 12:51:18;;;;;;;6.00;4.13;;;19.40;89.20;;;;;;5115581;27;20422;-76
2022/11/12 12:53:43;;;;;;;4.03;3.60;;;19.60;90.30;;;;;;5113851;28;20410;-76
2022/11/12 12:56:12;;;;;;;4.57;4.10;;;20.00;89.40;;;;;;5115859;28;20927;-76
2022/11/12 12:58:43;;;;;;;4.10;3.70;;;20.40;89.30;;;;;;5116465;28;20184;-77
2022/11/12 13:01:18;;;;;;;4.53;3.83;;;20.30;89.90;;;;;;5116536;28;20462;-77
2022/11/12 13:04:02;;;;;;;5.83;3.33;;;20.40;89.40;;;;;;5116792;28;20409;-77
2022/11/12 13:06:36;;;;;;;3.93;3.00;;;20.90;89.40;;;;;;5114841;28;20411;-77
2022/11/12 13:09:13;;;;;;;4.87;3.63;;;20.70;87.80;;;;;;5115841;28;20899;-76
2022/11/12 13:14:35;;;;;;;4.60;3.90;;;21.20;89.50;;;;;;5116328;28;20394;-77
2022/11/12 13:17:09;;;;;;;4.53;4.10;;;21.60;88.40;;;;;;5116375;28;20747;-76
2022/11/12 13:19:35;;;;;;;7.77;3.83;;;22.20;87.10;;;;;;5114731;28;20537;-76
2022/11/12 13:22:16;;;;;;;4.73;3.60;;;22.50;84.10;;;;;;5113173;28;20930;-76
2022/11/12 13:25:06;;;;;;;4.33;3.57;;;22.80;83.80;;;;;;5113733;28;20164;-76
2022/11/12 13:27:44;;;;;;;4.07;3.40;;;22.80;81.80;;;;;;5115569;28;20387;-77
2022/11/12 13:30:12;;;;;;;5.90;3.50;;;22.60;80.50;;;;;;5114978;28;20414;-76
2022/11/12 13:32:47;;;;;;;4.07;3.30;;;22.20;81.40;;;;;;5115420;28;20391;-76
2022/11/12 13:35:21;;;;;;;5.30;3.50;;;21.80;82.50;;;;;;5115145;28;20509;-77